Time;durP1;ratioP1;P1;durP2;ratioP2;P2;SDS_P1;SDS_P2;PMS_P1;PMS_P2;Temp;Humidity;BMP_temperature;BMP_pressure;BME280_temperature;BME280_humidity;BME280_pressure;Samples;Min_cycle;Max_cycle;Signal;HPM_P1;HPM_P2
2023/12/16 00:00:21;;;;;;;1.20;1.10;;;9.40;99.90;;;;;;7390673;19;20141;-77
2023/12/16 00:02:47;;;;;;;1.10;1.00;;;9.40;99.90;;;;;;7390094;19;20142;-76
2023/12/16 00:05:13;;;;;;;1.93;1.40;;;9.40;99.90;;;;;;7389836;19;20174;-76
2023/12/16 00:07:39;;;;;;;1.40;1.10;;;9.40;99.90;;;;;;7389264;19;20142;-74
2023/12/16 00:10:06;;;;;;;1.20;1.10;;;9.40;99.90;;;;;;7389527;19;20542;-75
2023/12/16 00:12:32;;;;;;;2.30;1.63;;;9.30;99.90;;;;;;7390305;19;20578;-79
2023/12/16 00:14:57;;;;;;;1.40;1.27;;;9.40;99.90;;;;;;7390535;19;20171;-75
2023/12/16 00:17:24;;;;;;;2.10;1.60;;;9.20;99.90;;;;;;7388127;19;20194;-76
2023/12/16 00:19:50;;;;;;;2.30;1.77;;;9.30;99.90;;;;;;7392401;19;20205;-77
2023/12/16 00:22:16;;;;;;;2.10;1.60;;;9.30;99.90;;;;;;7390177;19;20164;-77
2023/12/16 00:24:42;;;;;;;2.07;1.40;;;9.10;99.90;;;;;;7389631;19;20150;-77
2023/12/16 00:27:08;;;;;;;1.90;1.80;;;8.90;99.90;;;;;;7390639;19;20134;-76
2023/12/16 00:29:36;;;;;;;1.47;1.37;;;8.80;99.90;;;;;;7390200;19;20151;-77
2023/12/16 00:32:02;;;;;;;1.47;1.37;;;8.90;99.90;;;;;;7388479;19;20508;-77
2023/12/16 00:34:28;;;;;;;2.07;1.80;;;9.10;99.90;;;;;;7389469;19;20171;-76
2023/12/16 00:36:54;;;;;;;1.47;1.33;;;9.10;99.90;;;;;;7390527;19;20131;-76
2023/12/16 00:39:20;;;;;;;2.97;1.77;;;8.70;99.90;;;;;;7389264;19;20191;-77
2023/12/16 00:41:46;;;;;;;1.97;1.60;;;8.80;99.90;;;;;;7389353;19;20153;-76
2023/12/16 00:44:12;;;;;;;1.20;1.10;;;9.00;99.90;;;;;;7391386;19;20135;-77
2023/12/16 00:46:38;;;;;;;3.47;1.50;;;9.20;99.90;;;;;;7395816;19;20230;-76
2023/12/16 00:49:04;;;;;;;1.83;1.60;;;9.20;99.90;;;;;;7396208;19;20146;-76
2023/12/16 00:51:29;;;;;;;1.53;1.43;;;9.30;99.90;;;;;;7394555;19;20139;-76
2023/12/16 00:53:55;;;;;;;1.30;1.20;;;9.30;99.90;;;;;;7397508;19;20151;-75
2023/12/16 00:56:21;;;;;;;1.37;1.23;;;9.30;99.90;;;;;;7395772;19;20131;-77
2023/12/16 00:58:46;;;;;;;2.57;2.00;;;9.40;99.90;;;;;;7395067;19;20163;-76
2023/12/16 01:01:15;;;;;;;2.20;1.70;;;9.30;99.90;;;;;;7395869;19;20574;-76
2023/12/16 01:03:41;;;;;;;2.50;1.80;;;9.30;99.90;;;;;;7397303;19;20744;-76
2023/12/16 01:06:07;;;;;;;2.03;1.80;;;9.30;99.90;;;;;;7393284;19;20155;-76
2023/12/16 01:08:33;;;;;;;2.43;1.90;;;9.50;99.90;;;;;;7397364;19;20134;-75
2023/12/16 01:10:59;;;;;;;2.33;1.57;;;9.30;99.90;;;;;;7396637;19;20162;-76
2023/12/16 01:13:25;;;;;;;2.77;2.10;;;9.30;99.90;;;;;;7396226;19;20135;-76
2023/12/16 01:15:51;;;;;;;2.10;1.47;;;9.30;99.90;;;;;;7395328;19;20651;-76
2023/12/16 01:18:16;;;;;;;2.50;1.53;;;9.30;99.90;;;;;;7395174;19;20543;-76
2023/12/16 01:20:42;;;;;;;2.40;1.57;;;9.30;99.90;;;;;;7395382;19;20130;-75
2023/12/16 01:23:08;;;;;;;2.43;1.93;;;9.40;99.90;;;;;;7395125;19;20595;-77
2023/12/16 01:25:34;;;;;;;2.40;1.70;;;9.40;99.90;;;;;;7394735;19;20147;-76
2023/12/16 01:27:59;;;;;;;1.17;1.07;;;9.40;99.90;;;;;;7393898;19;20508;-76
2023/12/16 01:30:25;;;;;;;1.03;0.90;;;9.40;99.90;;;;;;7395748;19;20168;-76
2023/12/16 01:32:51;;;;;;;1.83;1.60;;;9.40;99.90;;;;;;7393950;19;20138;-76
2023/12/16 01:35:17;;;;;;;3.57;2.30;;;9.40;99.90;;;;;;7394113;19;20150;-75
2023/12/16 01:37:43;;;;;;;2.80;1.50;;;9.30;99.90;;;;;;7394611;19;20142;-76
2023/12/16 01:40:09;;;;;;;1.60;1.50;;;9.30;99.90;;;;;;7394275;19;20134;-75
2023/12/16 01:42:35;;;;;;;1.63;1.47;;;9.30;99.90;;;;;;7395417;19;20150;-75
2023/12/16 01:45:01;;;;;;;1.20;1.00;;;9.30;99.90;;;;;;7395008;19;20159;-76
2023/12/16 01:47:27;;;;;;;2.20;1.70;;;9.30;99.90;;;;;;7393712;19;20177;-76
2023/12/16 01:49:52;;;;;;;2.27;1.33;;;9.30;99.90;;;;;;7393077;19;20151;-76
2023/12/16 01:52:19;;;;;;;1.50;1.37;;;9.20;99.90;;;;;;7393014;19;20573;-76
2023/12/16 01:54:45;;;;;;;1.67;1.40;;;9.30;99.90;;;;;;7393946;19;20147;-77
2023/12/16 01:57:11;;;;;;;2.23;1.73;;;9.30;99.90;;;;;;7395066;19;20138;-74
2023/12/16 01:59:36;;;;;;;1.87;1.50;;;9.30;99.90;;;;;;7395304;19;20149;-76
2023/12/16 02:02:03;;;;;;;1.80;1.40;;;9.30;99.90;;;;;;7393725;19;20143;-76
2023/12/16 02:04:30;;;;;;;2.20;1.63;;;9.30;99.90;;;;;;7394259;19;20627;-76
2023/12/16 02:06:56;;;;;;;2.30;1.33;;;9.20;99.90;;;;;;7393693;19;20145;-77
2023/12/16 02:09:23;;;;;;;2.13;1.50;;;9.10;99.90;;;;;;7393132;19;20158;-76
2023/12/16 02:11:49;;;;;;;1.83;1.50;;;9.10;99.90;;;;;;7386047;19;20146;-76
2023/12/16 02:14:15;;;;;;;1.60;1.10;;;9.10;99.90;;;;;;7393384;19;20151;-76
2023/12/16 02:16:41;;;;;;;1.50;1.40;;;9.10;99.90;;;;;;7393649;19;20156;-76
2023/12/16 02:19:12;;;;;;;3.00;1.97;;;9.10;99.90;;;;;;7393844;19;20130;-76
2023/12/16 02:21:39;;;;;;;2.40;1.73;;;9.00;99.90;;;;;;7396487;19;20130;-77
2023/12/16 02:24:05;;;;;;;2.53;1.63;;;9.10;99.90;;;;;;7395450;19;20156;-76
2023/12/16 02:26:31;;;;;;;1.83;1.53;;;9.10;99.90;;;;;;7393695;19;20583;-77
2023/12/16 02:28:56;;;;;;;1.80;1.20;;;9.10;99.90;;;;;;7391364;19;20621;-77
2023/12/16 02:31:22;;;;;;;1.90;1.20;;;9.10;99.90;;;;;;7393249;19;20154;-76
2023/12/16 02:33:48;;;;;;;2.40;1.50;;;9.10;99.90;;;;;;7393975;19;20643;-76
2023/12/16 02:36:13;;;;;;;2.47;1.73;;;9.20;99.90;;;;;;7394737;19;20127;-77
2023/12/16 02:38:39;;;;;;;2.50;1.43;;;9.10;99.90;;;;;;7394727;19;20591;-76
2023/12/16 02:41:05;;;;;;;1.30;1.20;;;9.10;99.90;;;;;;7393039;19;20210;-77
2023/12/16 02:43:31;;;;;;;1.50;1.37;;;8.90;99.90;;;;;;7392651;19;20480;-75
2023/12/16 02:45:56;;;;;;;2.90;1.60;;;8.90;99.90;;;;;;7393025;19;20711;-76
2023/12/16 02:48:22;;;;;;;1.13;1.03;;;8.70;99.90;;;;;;7392789;19;20149;-76
2023/12/16 02:50:48;;;;;;;1.83;1.30;;;8.80;99.90;;;;;;7392891;19;20139;-77
2023/12/16 02:53:13;;;;;;;2.07;1.83;;;9.00;99.90;;;;;;7388053;19;20469;-77
2023/12/16 02:55:42;;;;;;;1.63;1.53;;;9.00;99.90;;;;;;7391624;19;20138;-76
2023/12/16 02:58:08;;;;;;;1.50;1.30;;;9.10;99.90;;;;;;7392075;19;20648;-77
2023/12/16 03:00:34;;;;;;;1.63;1.30;;;9.20;99.90;;;;;;7392977;19;20126;-76
2023/12/16 03:03:00;;;;;;;3.30;1.73;;;9.30;99.90;;;;;;7391639;19;20130;-77
2023/12/16 03:05:25;;;;;;;1.97;1.47;;;9.30;99.90;;;;;;7391117;19;20161;-76
2023/12/16 03:07:51;;;;;;;2.00;1.80;;;9.30;99.90;;;;;;7388697;19;20184;-77
2023/12/16 03:10:17;;;;;;;2.00;1.60;;;9.20;99.90;;;;;;7392286;19;20142;-76
2023/12/16 03:12:45;;;;;;;2.10;1.70;;;9.20;99.90;;;;;;7394830;19;20583;-76
2023/12/16 03:15:11;;;;;;;2.13;1.50;;;9.20;99.90;;;;;;7393972;19;20143;-75
2023/12/16 03:17:36;;;;;;;2.10;1.90;;;9.30;99.90;;;;;;7393683;19;20142;-76
2023/12/16 03:20:07;;;;;;;1.13;1.03;;;9.30;99.90;;;;;;7391172;19;20147;-76
2023/12/16 03:22:33;;;;;;;1.43;1.33;;;9.20;99.90;;;;;;7392156;19;20181;-75
2023/12/16 03:24:59;;;;;;;1.77;1.30;;;9.20;99.90;;;;;;7391519;19;20588;-77
2023/12/16 03:27:25;;;;;;;1.43;1.33;;;9.20;99.90;;;;;;7385304;19;20204;-76
2023/12/16 03:29:53;;;;;;;1.80;1.40;;;9.20;99.90;;;;;;7391323;19;20127;-76
2023/12/16 03:32:19;;;;;;;1.90;1.73;;;9.20;99.90;;;;;;7390806;19;20138;-76
2023/12/16 03:34:45;;;;;;;1.77;1.30;;;9.10;99.90;;;;;;7389926;19;20621;-76
2023/12/16 03:37:12;;;;;;;1.27;1.17;;;9.10;99.90;;;;;;7390557;19;20139;-76
2023/12/16 03:39:42;;;;;;;1.47;1.30;;;9.10;99.90;;;;;;7390063;19;20135;-76
2023/12/16 03:42:08;;;;;;;1.30;1.20;;;9.10;99.90;;;;;;7391424;19;20170;-76
2023/12/16 03:44:34;;;;;;;1.67;1.50;;;9.10;99.90;;;;;;7389905;19;20154;-77
2023/12/16 03:47:00;;;;;;;1.37;1.27;;;8.90;99.90;;;;;;7390486;19;20156;-76
2023/12/16 03:49:25;;;;;;;2.47;1.93;;;9.00;99.90;;;;;;7389573;19;20157;-75
2023/12/16 03:51:53;;;;;;;1.30;1.20;;;9.00;99.90;;;;;;7390447;19;20149;-76
2023/12/16 03:54:22;;;;;;;1.97;1.40;;;9.00;99.90;;;;;;7389616;19;20651;-76
2023/12/16 03:56:48;;;;;;;2.93;1.63;;;9.00;99.90;;;;;;7389239;19;20146;-76
2023/12/16 03:59:13;;;;;;;1.70;1.60;;;8.90;99.90;;;;;;7388668;19;20142;-75
2023/12/16 04:01:45;;;;;;;1.03;1.00;;;9.00;99.90;;;;;;7390738;19;20153;-75
2023/12/16 04:04:14;;;;;;;1.63;1.00;;;9.00;99.90;;;;;;7390011;19;20213;-76
2023/12/16 04:06:40;;;;;;;1.53;1.23;;;9.00;99.90;;;;;;7391346;19;20143;-77
2023/12/16 04:09:06;;;;;;;1.53;1.13;;;9.00;99.90;;;;;;7388292;19;20127;-75
2023/12/16 04:11:32;;;;;;;1.73;1.57;;;9.00;99.90;;;;;;7388576;19;20510;-79
2023/12/16 04:13:57;;;;;;;1.13;1.07;;;9.10;99.90;;;;;;7389681;19;20134;-77
2023/12/16 04:16:23;;;;;;;2.40;1.53;;;9.00;99.90;;;;;;7389943;19;20135;-77
2023/12/16 04:18:49;;;;;;;1.20;1.10;;;9.00;99.90;;;;;;7390389;19;20145;-76
2023/12/16 04:21:14;;;;;;;2.90;1.47;;;9.00;99.90;;;;;;7397294;19;20139;-76
2023/12/16 04:23:43;;;;;;;1.00;1.00;;;9.10;99.90;;;;;;7396569;19;20147;-76
2023/12/16 04:26:09;;;;;;;5.57;1.67;;;9.10;99.90;;;;;;7398578;19;20641;-76
2023/12/16 04:28:35;;;;;;;1.77;1.03;;;9.10;99.90;;;;;;7397349;19;20154;-77
2023/12/16 04:31:00;;;;;;;2.70;1.77;;;9.10;99.90;;;;;;7395693;19;20131;-76
2023/12/16 04:33:26;;;;;;;1.30;1.20;;;9.10;99.90;;;;;;7397565;19;20157;-78
2023/12/16 04:35:52;;;;;;;1.50;1.40;;;9.10;99.90;;;;;;7398525;19;20239;-76
2023/12/16 04:38:17;;;;;;;2.93;2.03;;;9.10;99.90;;;;;;7396700;19;20471;-76
2023/12/16 04:40:43;;;;;;;1.93;1.63;;;9.10;99.90;;;;;;7397040;19;20141;-77
2023/12/16 04:43:09;;;;;;;1.37;1.27;;;9.00;99.90;;;;;;7396622;19;20739;-77
2023/12/16 04:45:35;;;;;;;1.87;1.30;;;9.00;99.90;;;;;;7395356;19;20129;-77
2023/12/16 04:48:01;;;;;;;1.40;1.13;;;9.00;99.90;;;;;;7395657;19;20628;-77
2023/12/16 04:50:27;;;;;;;2.70;1.37;;;9.10;99.90;;;;;;7395103;19;20237;-76
2023/12/16 04:52:53;;;;;;;1.50;0.93;;;9.10;99.90;;;;;;7395284;19;20135;-75
2023/12/16 04:55:18;;;;;;;1.07;0.93;;;9.00;99.90;;;;;;7396242;19;20146;-75
2023/12/16 04:57:44;;;;;;;1.77;1.20;;;9.00;99.90;;;;;;7397154;19;20209;-76
2023/12/16 05:00:11;;;;;;;0.93;0.83;;;8.90;99.90;;;;;;7395190;19;20139;-76
2023/12/16 05:02:40;;;;;;;1.37;1.27;;;9.00;99.90;;;;;;7396655;19;20139;-75
2023/12/16 05:05:06;;;;;;;1.50;1.27;;;8.90;99.90;;;;;;7394833;19;20189;-75
2023/12/16 05:07:32;;;;;;;1.80;1.30;;;9.00;99.90;;;;;;7396117;19;20143;-75
2023/12/16 05:09:58;;;;;;;1.37;1.27;;;8.90;99.90;;;;;;7397122;19;20142;-76
2023/12/16 05:12:24;;;;;;;1.20;1.10;;;9.00;99.90;;;;;;7393188;19;20135;-76
2023/12/16 05:14:50;;;;;;;1.80;1.20;;;9.00;99.90;;;;;;7395499;19;20135;-76
2023/12/16 05:17:15;;;;;;;1.70;1.20;;;9.00;99.90;;;;;;7397354;19;20142;-77
2023/12/16 05:19:42;;;;;;;1.30;1.10;;;9.00;99.90;;;;;;7393759;19;20536;-76
2023/12/16 05:22:07;;;;;;;1.23;1.00;;;9.00;99.90;;;;;;7396772;19;20139;-77
2023/12/16 05:24:33;;;;;;;1.13;1.07;;;9.00;99.90;;;;;;7395934;19;20163;-76
2023/12/16 05:26:59;;;;;;;1.87;1.27;;;9.00;99.90;;;;;;7395153;19;20147;-76
2023/12/16 05:29:24;;;;;;;1.40;1.30;;;9.00;99.90;;;;;;7395324;19;20159;-77
2023/12/16 05:31:50;;;;;;;1.30;1.20;;;9.00;99.90;;;;;;7392589;19;20150;-75
2023/12/16 05:34:19;;;;;;;1.00;0.83;;;9.00;99.90;;;;;;7395170;19;20147;-76
2023/12/16 05:36:47;;;;;;;1.10;1.00;;;9.00;99.90;;;;;;7397201;19;20143;-76
2023/12/16 05:39:13;;;;;;;1.27;1.10;;;8.90;99.90;;;;;;7393172;19;20214;-78
2023/12/16 05:41:38;;;;;;;1.20;1.10;;;8.90;99.90;;;;;;7395126;19;20159;-76
2023/12/16 05:44:04;;;;;;;0.83;0.80;;;8.90;99.90;;;;;;7395151;19;20146;-75
2023/12/16 05:46:30;;;;;;;0.90;0.90;;;8.80;99.90;;;;;;7393785;19;20162;-76
2023/12/16 05:48:56;;;;;;;2.17;1.23;;;8.70;99.90;;;;;;7393322;19;20130;-77
2023/12/16 05:51:21;;;;;;;0.93;0.90;;;8.70;99.90;;;;;;7392373;19;20210;-77
2023/12/16 05:53:47;;;;;;;1.90;1.20;;;8.80;99.90;;;;;;7393944;19;20140;-74
2023/12/16 05:56:13;;;;;;;1.07;0.90;;;8.80;99.90;;;;;;7396497;19;20131;-76
2023/12/16 05:58:39;;;;;;;1.37;1.27;;;8.90;99.90;;;;;;7394939;19;20141;-76
2023/12/16 06:01:06;;;;;;;0.90;0.90;;;8.90;99.90;;;;;;7393523;19;20567;-76
2023/12/16 06:03:32;;;;;;;1.13;1.03;;;8.90;99.90;;;;;;7395644;19;20198;-78
2023/12/16 06:05:57;;;;;;;1.33;1.00;;;8.90;99.90;;;;;;7394066;19;20160;-77
2023/12/16 06:08:23;;;;;;;1.00;0.70;;;8.80;99.90;;;;;;7392351;19;20127;-77
2023/12/16 06:10:49;;;;;;;1.13;1.00;;;8.80;99.90;;;;;;7392855;19;20131;-77
2023/12/16 06:13:15;;;;;;;1.30;1.20;;;8.90;99.90;;;;;;7395101;19;20139;-76
2023/12/16 06:15:40;;;;;;;1.07;0.97;;;8.90;99.90;;;;;;7393521;19;20143;-76
2023/12/16 06:18:06;;;;;;;2.37;1.20;;;8.90;99.90;;;;;;7393072;19;20139;-76
2023/12/16 06:20:32;;;;;;;1.37;0.97;;;8.90;99.90;;;;;;7393148;19;20127;-77
2023/12/16 06:22:58;;;;;;;1.20;1.10;;;8.90;99.90;;;;;;7393017;19;20123;-76
2023/12/16 06:25:23;;;;;;;1.00;0.90;;;8.90;99.90;;;;;;7394709;19;20143;-76
2023/12/16 06:27:50;;;;;;;1.87;1.57;;;8.90;99.90;;;;;;7392210;19;20583;-76
2023/12/16 06:30:16;;;;;;;1.00;0.90;;;8.90;99.90;;;;;;7391868;19;20138;-77
2023/12/16 06:32:42;;;;;;;0.97;0.93;;;8.80;99.90;;;;;;7393623;19;20175;-76
2023/12/16 06:35:08;;;;;;;1.03;0.93;;;8.80;99.90;;;;;;7392795;19;20131;-77
2023/12/16 06:37:33;;;;;;;0.93;0.90;;;8.80;99.90;;;;;;7392031;19;20159;-76
2023/12/16 06:39:59;;;;;;;1.53;1.23;;;8.80;99.90;;;;;;7393106;19;20539;-76
2023/12/16 06:42:25;;;;;;;1.30;1.20;;;8.80;99.90;;;;;;7390015;19;20134;-78
2023/12/16 06:44:50;;;;;;;1.20;1.00;;;8.80;99.90;;;;;;7393107;19;20149;-76
2023/12/16 06:47:16;;;;;;;2.07;1.63;;;8.80;99.90;;;;;;7390865;19;20178;-76
2023/12/16 06:49:42;;;;;;;1.47;1.03;;;8.80;99.90;;;;;;7392273;19;20133;-78
2023/12/16 06:52:07;;;;;;;1.10;1.00;;;8.90;99.90;;;;;;7389798;19;20149;-78
2023/12/16 06:54:33;;;;;;;1.17;1.00;;;8.80;99.90;;;;;;7393752;19;20142;-78
2023/12/16 06:56:59;;;;;;;1.47;0.90;;;8.80;99.90;;;;;;7391641;19;20154;-76
2023/12/16 06:59:24;;;;;;;1.07;0.97;;;8.80;99.90;;;;;;7390785;19;20142;-78
2023/12/16 07:01:50;;;;;;;1.40;1.30;;;8.80;99.90;;;;;;7391012;19;20146;-76
2023/12/16 07:04:16;;;;;;;2.60;1.30;;;8.80;99.90;;;;;;7391417;19;20161;-78
2023/12/16 07:06:41;;;;;;;1.60;1.33;;;8.80;99.90;;;;;;7391762;19;20146;-76
2023/12/16 07:09:07;;;;;;;1.03;0.93;;;8.80;99.90;;;;;;7389546;19;20151;-77
2023/12/16 07:11:35;;;;;;;1.47;1.37;;;8.80;99.90;;;;;;7389612;19;20137;-75
2023/12/16 07:14:01;;;;;;;0.80;0.77;;;8.80;99.90;;;;;;7390150;19;20564;-76
2023/12/16 07:16:26;;;;;;;0.80;0.73;;;8.80;99.90;;;;;;7391301;19;20149;-76
2023/12/16 07:18:52;;;;;;;1.10;0.83;;;8.80;99.90;;;;;;7390649;19;20139;-76
2023/12/16 07:21:18;;;;;;;1.03;0.93;;;8.80;99.90;;;;;;7391864;19;20131;-75
2023/12/16 07:23:44;;;;;;;0.93;0.93;;;8.70;99.90;;;;;;7392347;19;20158;-75
2023/12/16 07:26:09;;;;;;;0.93;0.90;;;8.70;99.90;;;;;;7391231;19;20142;-76
2023/12/16 07:28:35;;;;;;;0.90;0.90;;;8.70;99.90;;;;;;7391748;19;20180;-79
2023/12/16 07:31:01;;;;;;;2.20;1.10;;;8.70;99.90;;;;;;7391024;19;20142;-79
2023/12/16 07:33:26;;;;;;;2.57;1.17;;;8.70;99.90;;;;;;7390880;19;20139;-77
2023/12/16 07:35:52;;;;;;;1.10;1.00;;;8.70;99.90;;;;;;7388742;19;20146;-79
2023/12/16 07:38:18;;;;;;;1.37;1.27;;;8.70;99.90;;;;;;7391216;19;20138;-78
2023/12/16 07:40:43;;;;;;;1.20;1.10;;;8.70;99.90;;;;;;7389494;19;20174;-76
2023/12/16 07:43:09;;;;;;;2.27;1.90;;;8.80;99.90;;;;;;7390879;19;20616;-76
2023/12/16 07:45:36;;;;;;;1.50;1.30;;;8.70;99.90;;;;;;7387465;19;20227;-77
2023/12/16 07:48:02;;;;;;;1.40;1.30;;;8.70;99.90;;;;;;7387911;19;20654;-75
2023/12/16 07:50:27;;;;;;;1.50;1.00;;;8.60;99.90;;;;;;7389659;19;20142;-77
2023/12/16 07:52:53;;;;;;;2.00;0.80;;;8.70;99.90;;;;;;7390368;19;20186;-78
2023/12/16 07:55:19;;;;;;;2.00;1.30;;;8.70;99.90;;;;;;7405511;19;20151;-79
2023/12/16 07:57:45;;;;;;;1.40;1.27;;;8.60;99.90;;;;;;7403837;19;20138;-77
2023/12/16 08:00:11;;;;;;;1.53;1.37;;;8.60;99.90;;;;;;7404631;19;20138;-81
2023/12/16 08:02:39;;;;;;;1.13;1.03;;;8.60;99.90;;;;;;7403745;19;20142;-80
2023/12/16 08:05:05;;;;;;;1.23;0.80;;;8.60;99.90;;;;;;7404612;19;20173;-81
2023/12/16 08:07:31;;;;;;;0.77;0.77;;;8.70;99.90;;;;;;7403932;19;20130;-77
2023/12/16 08:09:57;;;;;;;1.50;1.17;;;8.70;99.90;;;;;;7405540;19;20638;-76
2023/12/16 08:12:23;;;;;;;1.67;1.00;;;8.80;99.90;;;;;;7402107;19;20210;-80
2023/12/16 08:14:49;;;;;;;1.23;1.13;;;8.80;99.90;;;;;;7404057;19;20130;-76
2023/12/16 08:17:15;;;;;;;1.77;1.67;;;8.70;99.90;;;;;;7404185;19;20146;-79
2023/12/16 08:19:42;;;;;;;1.10;1.00;;;8.80;99.90;;;;;;7402889;19;20149;-78
2023/12/16 08:22:08;;;;;;;1.07;0.97;;;8.80;99.90;;;;;;7405797;19;20147;-79
2023/12/16 08:24:34;;;;;;;1.10;1.00;;;8.80;99.90;;;;;;7403781;19;20134;-78
2023/12/16 08:27:00;;;;;;;1.10;0.80;;;8.80;99.90;;;;;;7403987;19;20456;-76
2023/12/16 08:29:25;;;;;;;1.10;1.00;;;8.70;99.90;;;;;;7400862;19;20131;-77
2023/12/16 08:31:51;;;;;;;2.80;1.67;;;8.70;99.90;;;;;;7399483;19;20146;-77
2023/12/16 08:34:18;;;;;;;1.70;1.10;;;8.70;99.90;;;;;;7403398;19;20163;-77
2023/12/16 08:36:44;;;;;;;1.40;1.30;;;8.70;99.90;;;;;;7406831;19;20150;-79
2023/12/16 08:39:09;;;;;;;1.43;1.20;;;8.80;99.90;;;;;;7402686;19;20122;-79
2023/12/16 08:41:35;;;;;;;1.87;1.07;;;8.80;99.90;;;;;;7406311;19;20143;-79
2023/12/16 08:44:03;;;;;;;1.03;0.97;;;8.70;99.90;;;;;;7404732;19;20122;-80
2023/12/16 08:46:28;;;;;;;1.43;1.30;;;8.70;99.90;;;;;;7403517;19;20210;-79
2023/12/16 08:48:55;;;;;;;0.70;0.70;;;8.80;99.90;;;;;;7404309;19;20494;-76
2023/12/16 08:51:25;;;;;;;1.90;1.60;;;8.80;99.90;;;;;;7404365;19;20134;-76
2023/12/16 08:53:53;;;;;;;0.87;0.87;;;8.90;99.90;;;;;;7403087;19;20143;-78
2023/12/16 08:56:18;;;;;;;1.27;0.83;;;8.90;99.90;;;;;;7406188;19;20611;-78
2023/12/16 08:58:47;;;;;;;1.67;1.57;;;9.00;99.90;;;;;;7403683;19;20119;-80
2023/12/16 09:01:13;;;;;;;1.70;1.20;;;9.00;99.90;;;;;;7405705;19;20553;-77
2023/12/16 09:03:43;;;;;;;0.87;0.83;;;9.00;99.90;;;;;;7404557;19;20177;-80
2023/12/16 09:06:09;;;;;;;1.00;0.90;;;9.00;99.90;;;;;;7393223;19;20147;-79
2023/12/16 09:08:35;;;;;;;0.80;0.80;;;9.00;99.90;;;;;;7396981;19;20150;-78
2023/12/16 09:11:01;;;;;;;1.33;1.23;;;9.00;99.90;;;;;;7395366;19;20142;-78
2023/12/16 09:13:26;;;;;;;1.53;1.07;;;9.00;99.90;;;;;;7396706;19;20148;-78
2023/12/16 09:15:52;;;;;;;1.43;1.00;;;9.00;99.90;;;;;;7396379;19;20146;-79
2023/12/16 09:18:18;;;;;;;2.40;1.47;;;9.00;99.90;;;;;;7395134;19;20456;-78
2023/12/16 09:20:43;;;;;;;0.60;0.60;;;9.00;99.90;;;;;;7395847;19;20706;-75
2023/12/16 09:23:09;;;;;;;1.10;1.00;;;9.10;99.90;;;;;;7395671;19;20134;-77
2023/12/16 09:25:35;;;;;;;1.27;1.17;;;9.10;99.90;;;;;;7395764;19;20456;-76
2023/12/16 09:28:01;;;;;;;1.00;0.83;;;9.10;99.90;;;;;;7394366;19;20495;-77
2023/12/16 09:30:26;;;;;;;1.20;1.07;;;9.20;99.90;;;;;;7395306;19;20141;-78
2023/12/16 09:32:52;;;;;;;1.70;1.60;;;9.20;99.90;;;;;;7395250;19;20135;-81
2023/12/16 09:35:18;;;;;;;2.10;1.13;;;9.20;99.90;;;;;;7394863;19;20453;-80
2023/12/16 09:37:44;;;;;;;1.27;1.10;;;9.10;99.90;;;;;;7397024;19;20142;-81
2023/12/16 09:40:10;;;;;;;1.17;1.07;;;9.10;99.90;;;;;;7395696;19;20142;-81
2023/12/16 09:42:36;;;;;;;1.33;0.90;;;9.20;99.90;;;;;;7396431;19;20149;-79
2023/12/16 09:45:09;;;;;;;2.07;1.30;;;9.30;99.90;;;;;;7395953;19;20147;-80
2023/12/16 09:47:34;;;;;;;1.33;1.23;;;9.30;99.90;;;;;;7393792;19;20150;-80
2023/12/16 09:50:00;;;;;;;1.43;1.33;;;9.20;99.90;;;;;;7394974;19;20138;-79
2023/12/16 09:52:27;;;;;;;1.73;1.30;;;9.30;99.90;;;;;;7391462;19;20468;-80
2023/12/16 09:54:54;;;;;;;1.67;1.33;;;9.30;99.90;;;;;;7396182;19;20547;-80
2023/12/16 09:57:22;;;;;;;3.60;2.20;;;9.10;99.90;;;;;;7395211;19;20478;-78
2023/12/16 09:59:48;;;;;;;1.33;1.23;;;9.30;99.90;;;;;;7393137;19;20153;-79
2023/12/16 10:02:28;;;;;;;1.70;1.53;;;9.20;99.90;;;;;;7395283;19;20561;-80
2023/12/16 10:04:56;;;;;;;1.30;1.20;;;9.00;99.90;;;;;;7393027;19;20158;-80
2023/12/16 10:07:22;;;;;;;1.53;1.43;;;8.90;99.90;;;;;;7395940;19;20135;-79
2023/12/16 10:09:48;;;;;;;2.07;1.40;;;9.10;99.90;;;;;;7394266;19;20528;-80
2023/12/16 10:12:14;;;;;;;1.53;1.40;;;8.80;99.90;;;;;;7392031;19;20130;-77
2023/12/16 10:14:51;;;;;;;1.77;1.47;;;8.90;99.90;;;;;;7394794;19;20146;-82
2023/12/16 10:17:18;;;;;;;1.80;1.70;;;9.20;99.90;;;;;;7390984;19;20145;-79
2023/12/16 10:19:45;;;;;;;2.13;1.60;;;9.30;99.90;;;;;;7395083;19;20141;-79
2023/12/16 10:22:13;;;;;;;2.23;1.70;;;9.40;99.90;;;;;;7394989;19;20524;-80
2023/12/16 10:24:41;;;;;;;1.70;1.60;;;9.40;99.90;;;;;;7394800;19;20150;-79
2023/12/16 10:27:07;;;;;;;2.10;1.70;;;9.40;99.90;;;;;;7390837;19;20158;-79
2023/12/16 10:29:33;;;;;;;1.37;1.27;;;9.20;99.90;;;;;;7390904;19;20936;-78
2023/12/16 10:32:00;;;;;;;1.80;1.57;;;9.30;99.90;;;;;;7391744;19;20134;-77
2023/12/16 10:34:30;;;;;;;2.77;1.57;;;9.30;99.90;;;;;;7390620;19;20491;-79
2023/12/16 10:37:09;;;;;;;3.10;1.97;;;8.60;99.90;;;;;;7394082;19;20506;-79
2023/12/16 10:39:35;;;;;;;2.60;1.83;;;9.00;99.90;;;;;;7391797;19;20134;-79
2023/12/16 10:42:02;;;;;;;2.37;1.20;;;9.30;99.90;;;;;;7394505;19;20138;-78
2023/12/16 10:44:28;;;;;;;5.00;2.60;;;9.30;99.90;;;;;;7391650;19;20467;-80
2023/12/16 10:46:56;;;;;;;2.17;1.83;;;9.50;99.90;;;;;;7392205;19;20159;-80
2023/12/16 10:49:28;;;;;;;3.70;1.50;;;9.50;99.90;;;;;;7391391;19;20186;-78
2023/12/16 10:52:04;;;;;;;2.00;1.50;;;9.50;99.90;;;;;;7390655;19;20496;-78
2023/12/16 10:54:36;;;;;;;1.80;1.30;;;9.50;99.90;;;;;;7392840;19;20210;-78
2023/12/16 10:57:26;;;;;;;1.97;1.57;;;9.60;99.90;;;;;;7392705;19;20174;-79
2023/12/16 11:00:04;;;;;;;1.40;1.20;;;9.60;99.90;;;;;;7391225;19;20622;-78
2023/12/16 11:02:31;;;;;;;1.93;1.33;;;9.60;99.90;;;;;;7393318;19;20134;-79
2023/12/16 11:05:14;;;;;;;1.70;1.60;;;9.70;99.90;;;;;;7390906;19;20555;-80
2023/12/16 11:07:41;;;;;;;3.97;2.07;;;9.60;99.90;;;;;;7393328;19;20579;-79
2023/12/16 11:10:07;;;;;;;2.93;2.03;;;9.70;99.90;;;;;;7392468;19;20126;-79
2023/12/16 11:12:38;;;;;;;1.53;1.43;;;9.80;99.90;;;;;;7394239;19;20131;-80
2023/12/16 11:15:06;;;;;;;1.53;1.43;;;9.60;99.90;;;;;;7392516;19;20138;-79
2023/12/16 11:17:52;;;;;;;2.20;1.60;;;9.60;99.90;;;;;;7391965;19;20561;-78
2023/12/16 11:20:21;;;;;;;2.40;1.67;;;9.60;99.90;;;;;;7391950;19;20139;-78
2023/12/16 11:22:51;;;;;;;2.83;1.80;;;9.60;99.90;;;;;;7394767;19;20137;-79
2023/12/16 11:25:19;;;;;;;1.87;1.40;;;9.70;99.90;;;;;;7392405;19;20576;-80
2023/12/16 11:27:48;;;;;;;1.97;1.60;;;9.70;99.90;;;;;;7391358;19;20617;-79
2023/12/16 11:30:16;;;;;;;1.63;1.30;;;9.70;99.90;;;;;;7392519;19;20563;-79
2023/12/16 11:32:44;;;;;;;2.10;1.60;;;9.80;99.90;;;;;;7392000;19;20159;-79
2023/12/16 11:35:10;;;;;;;2.10;1.53;;;9.80;99.90;;;;;;7390974;19;20154;-77
2023/12/16 11:37:36;;;;;;;1.77;1.67;;;9.80;99.90;;;;;;7390124;19;20149;-78
2023/12/16 11:40:04;;;;;;;4.80;2.07;;;9.90;99.90;;;;;;7391544;19;20151;-80
2023/12/16 11:42:48;;;;;;;3.80;1.93;;;9.80;99.90;;;;;;7390456;19;20151;-78
2023/12/16 11:45:42;;;;;;;2.40;1.60;;;9.70;99.90;;;;;;7391913;19;20134;-79
2023/12/16 11:48:09;;;;;;;1.67;1.30;;;9.70;99.90;;;;;;7388641;19;20178;-80
2023/12/16 11:50:39;;;;;;;2.10;1.80;;;9.70;99.90;;;;;;7390068;19;20214;-82
2023/12/16 11:53:12;;;;;;;3.55;2.40;;;9.80;99.90;;;;;;7388637;19;20395;-78
2023/12/16 11:55:38;;;;;;;5.10;2.93;;;9.90;99.90;;;;;;7390127;19;20201;-79
2023/12/16 11:58:05;;;;;;;2.80;2.03;;;9.90;99.90;;;;;;7390391;19;20690;-80
2023/12/16 12:00:31;;;;;;;2.20;1.67;;;9.90;99.90;;;;;;7392110;19;20135;-79
2023/12/16 12:03:00;;;;;;;2.57;2.33;;;9.90;99.90;;;;;;7393277;19;20142;-81
2023/12/16 12:05:27;;;;;;;2.27;1.37;;;9.90;99.90;;;;;;7391353;19;20151;-79
2023/12/16 12:07:52;;;;;;;2.40;1.77;;;9.80;99.90;;;;;;7387311;19;20134;-79
2023/12/16 12:10:18;;;;;;;1.10;1.00;;;9.80;99.90;;;;;;7391909;19;20138;-78
2023/12/16 12:12:44;;;;;;;2.20;1.30;;;9.70;99.90;;;;;;7389606;19;20594;-78
2023/12/16 12:15:10;;;;;;;2.83;1.93;;;9.80;99.90;;;;;;7390950;19;20891;-77
2023/12/16 12:17:36;;;;;;;1.93;1.70;;;9.80;99.90;;;;;;7389760;19;20155;-77
2023/12/16 12:20:04;;;;;;;2.97;1.80;;;9.80;99.90;;;;;;7388007;19;20558;-77
2023/12/16 12:22:31;;;;;;;1.27;1.17;;;9.70;99.90;;;;;;7390460;19;20500;-78
2023/12/16 12:24:57;;;;;;;1.50;1.40;;;9.70;99.90;;;;;;7391528;19;20711;-76
2023/12/16 12:27:23;;;;;;;1.70;1.23;;;9.80;99.90;;;;;;7388527;19;20154;-77
2023/12/16 12:29:59;;;;;;;1.83;1.60;;;9.70;99.90;;;;;;7387746;19;20163;-77
2023/12/16 12:32:27;;;;;;;2.27;1.87;;;9.80;99.90;;;;;;7387711;19;20142;-78
2023/12/16 12:35:04;;;;;;;2.27;1.70;;;10.00;99.90;;;;;;7387068;19;20234;-77
2023/12/16 12:37:46;;;;;;;2.00;1.60;;;9.80;99.90;;;;;;7388976;19;20150;-76
2023/12/16 12:40:12;;;;;;;2.10;1.63;;;10.10;99.90;;;;;;7391391;19;20139;-78
2023/12/16 12:42:48;;;;;;;1.27;1.17;;;10.10;99.90;;;;;;7397030;19;20146;-76
2023/12/16 12:45:31;;;;;;;2.17;1.77;;;9.90;99.90;;;;;;7395688;19;20136;-77
2023/12/16 12:48:11;;;;;;;5.23;2.47;;;10.00;99.90;;;;;;7393220;19;20155;-78
2023/12/16 12:50:38;;;;;;;1.50;1.17;;;10.00;99.90;;;;;;7395829;19;20162;-78
2023/12/16 12:53:16;;;;;;;3.50;1.60;;;10.00;99.90;;;;;;7396708;19;20189;-78
2023/12/16 12:55:43;;;;;;;2.03;1.83;;;10.20;99.90;;;;;;7395770;19;20452;-78